sensor_id;sensor_type;location;lat;lon;timestamp;P1;durP1;ratioP1;P2;durP2;ratioP2
68089;SDS011;54880;50.986;6.990;2023-06-19T00:01:05;9.70;;;5.17;;
68089;SDS011;54880;50.986;6.990;2023-06-19T00:03:30;8.57;;;5.73;;
68089;SDS011;54880;50.986;6.990;2023-06-19T00:05:55;8.50;;;5.40;;
68089;SDS011;54880;50.986;6.990;2023-06-19T00:08:20;7.60;;;4.80;;
68089;SDS011;54880;50.986;6.990;2023-06-19T00:10:45;9.17;;;5.83;;
68089;SDS011;54880;50.986;6.990;2023-06-19T00:13:11;8.83;;;5.17;;
68089;SDS011;54880;50.986;6.990;2023-06-19T00:15:36;9.27;;;5.03;;
68089;SDS011;54880;50.986;6.990;2023-06-19T00:18:01;8.83;;;5.20;;
68089;SDS011;54880;50.986;6.990;2023-06-19T00:20:27;8.77;;;5.53;;
68089;SDS011;54880;50.986;6.990;2023-06-19T00:22:52;9.80;;;5.60;;
68089;SDS011;54880;50.986;6.990;2023-06-19T00:25:18;7.77;;;5.30;;
68089;SDS011;54880;50.986;6.990;2023-06-19T00:27:44;9.00;;;5.00;;
68089;SDS011;54880;50.986;6.990;2023-06-19T00:30:09;8.50;;;5.47;;
68089;SDS011;54880;50.986;6.990;2023-06-19T00:32:35;8.77;;;5.85;;
68089;SDS011;54880;50.986;6.990;2023-06-19T00:35:11;8.83;;;5.00;;
68089;SDS011;54880;50.986;6.990;2023-06-19T00:37:36;8.73;;;5.30;;
68089;SDS011;54880;50.986;6.990;2023-06-19T00:40:02;8.80;;;5.63;;
68089;SDS011;54880;50.986;6.990;2023-06-19T00:42:27;8.60;;;5.60;;
68089;SDS011;54880;50.986;6.990;2023-06-19T00:44:52;11.97;;;5.87;;
68089;SDS011;54880;50.986;6.990;2023-06-19T00:47:18;9.50;;;5.45;;
68089;SDS011;54880;50.986;6.990;2023-06-19T00:49:44;10.73;;;5.90;;
68089;SDS011;54880;50.986;6.990;2023-06-19T00:52:09;8.53;;;5.60;;
68089;SDS011;54880;50.986;6.990;2023-06-19T00:54:34;9.87;;;5.40;;
68089;SDS011;54880;50.986;6.990;2023-06-19T00:57:00;9.70;;;5.93;;
68089;SDS011;54880;50.986;6.990;2023-06-19T00:59:25;9.23;;;5.55;;
68089;SDS011;54880;50.986;6.990;2023-06-19T01:01:51;8.87;;;5.63;;
68089;SDS011;54880;50.986;6.990;2023-06-19T01:04:18;12.93;;;5.85;;
68089;SDS011;54880;50.986;6.990;2023-06-19T01:06:46;12.05;;;5.82;;
68089;SDS011;54880;50.986;6.990;2023-06-19T01:09:14;12.00;;;5.70;;
68089;SDS011;54880;50.986;6.990;2023-06-19T01:11:46;9.57;;;5.90;;
68089;SDS011;54880;50.986;6.990;2023-06-19T01:14:18;9.48;;;6.25;;
68089;SDS011;54880;50.986;6.990;2023-06-19T01:16:44;12.30;;;6.32;;
68089;SDS011;54880;50.986;6.990;2023-06-19T01:19:10;10.20;;;5.90;;
68089;SDS011;54880;50.986;6.990;2023-06-19T01:21:39;9.70;;;6.15;;
68089;SDS011;54880;50.986;6.990;2023-06-19T01:24:04;9.93;;;6.30;;
68089;SDS011;54880;50.986;6.990;2023-06-19T01:26:31;9.43;;;5.95;;
68089;SDS011;54880;50.986;6.990;2023-06-19T01:28:56;10.23;;;5.83;;
68089;SDS011;54880;50.986;6.990;2023-06-19T01:31:23;9.33;;;6.07;;
68089;SDS011;54880;50.986;6.990;2023-06-19T01:33:50;9.65;;;6.20;;
68089;SDS011;54880;50.986;6.990;2023-06-19T01:36:19;11.43;;;6.82;;
68089;SDS011;54880;50.986;6.990;2023-06-19T01:38:45;9.73;;;6.25;;
68089;SDS011;54880;50.986;6.990;2023-06-19T01:41:10;9.83;;;6.40;;
68089;SDS011;54880;50.986;6.990;2023-06-19T01:43:36;10.85;;;6.60;;
68089;SDS011;54880;50.986;6.990;2023-06-19T01:46:02;9.43;;;6.40;;
68089;SDS011;54880;50.986;6.990;2023-06-19T01:48:27;11.37;;;6.57;;
68089;SDS011;54880;50.986;6.990;2023-06-19T01:50:52;11.88;;;7.03;;
68089;SDS011;54880;50.986;6.990;2023-06-19T01:53:18;9.70;;;6.40;;
68089;SDS011;54880;50.986;6.990;2023-06-19T01:55:45;10.60;;;6.70;;
68089;SDS011;54880;50.986;6.990;2023-06-19T01:58:10;11.10;;;6.82;;
68089;SDS011;54880;50.986;6.990;2023-06-19T02:00:36;10.80;;;6.82;;
68089;SDS011;54880;50.986;6.990;2023-06-19T02:03:02;10.40;;;6.63;;
68089;SDS011;54880;50.986;6.990;2023-06-19T02:05:28;11.47;;;6.77;;
68089;SDS011;54880;50.986;6.990;2023-06-19T02:07:53;10.20;;;6.47;;
68089;SDS011;54880;50.986;6.990;2023-06-19T02:10:18;9.87;;;6.57;;
68089;SDS011;54880;50.986;6.990;2023-06-19T02:12:43;11.17;;;6.33;;
68089;SDS011;54880;50.986;6.990;2023-06-19T02:15:09;10.50;;;6.87;;
68089;SDS011;54880;50.986;6.990;2023-06-19T02:17:34;10.35;;;6.22;;
68089;SDS011;54880;50.986;6.990;2023-06-19T02:20:02;11.48;;;6.95;;
68089;SDS011;54880;50.986;6.990;2023-06-19T02:22:27;10.70;;;7.25;;
68089;SDS011;54880;50.986;6.990;2023-06-19T02:24:53;10.93;;;7.10;;
68089;SDS011;54880;50.986;6.990;2023-06-19T02:27:18;10.20;;;6.80;;
68089;SDS011;54880;50.986;6.990;2023-06-19T02:29:43;11.70;;;7.63;;
68089;SDS011;54880;50.986;6.990;2023-06-19T02:32:09;11.05;;;7.03;;
68089;SDS011;54880;50.986;6.990;2023-06-19T02:34:34;11.88;;;8.00;;
68089;SDS011;54880;50.986;6.990;2023-06-19T02:36:59;9.80;;;6.78;;
68089;SDS011;54880;50.986;6.990;2023-06-19T02:39:25;11.13;;;7.60;;
68089;SDS011;54880;50.986;6.990;2023-06-19T02:41:50;11.67;;;7.03;;
68089;SDS011;54880;50.986;6.990;2023-06-19T02:44:15;11.00;;;7.23;;
68089;SDS011;54880;50.986;6.990;2023-06-19T02:46:42;11.90;;;7.40;;
68089;SDS011;54880;50.986;6.990;2023-06-19T02:49:08;11.10;;;7.20;;
68089;SDS011;54880;50.986;6.990;2023-06-19T02:51:33;9.77;;;6.90;;
68089;SDS011;54880;50.986;6.990;2023-06-19T02:53:58;11.07;;;7.20;;
68089;SDS011;54880;50.986;6.990;2023-06-19T02:56:24;11.60;;;7.63;;
68089;SDS011;54880;50.986;6.990;2023-06-19T02:58:50;11.40;;;6.90;;
68089;SDS011;54880;50.986;6.990;2023-06-19T03:01:15;11.53;;;7.80;;
68089;SDS011;54880;50.986;6.990;2023-06-19T03:03:43;11.55;;;7.60;;
68089;SDS011;54880;50.986;6.990;2023-06-19T03:06:08;13.68;;;7.25;;
68089;SDS011;54880;50.986;6.990;2023-06-19T03:08:36;10.73;;;7.53;;
68089;SDS011;54880;50.986;6.990;2023-06-19T03:11:02;12.98;;;7.40;;
68089;SDS011;54880;50.986;6.990;2023-06-19T03:13:43;11.05;;;6.90;;
68089;SDS011;54880;50.986;6.990;2023-06-19T03:16:09;10.98;;;7.13;;
68089;SDS011;54880;50.986;6.990;2023-06-19T03:18:34;10.60;;;7.50;;
68089;SDS011;54880;50.986;6.990;2023-06-19T03:20:59;13.33;;;8.10;;
68089;SDS011;54880;50.986;6.990;2023-06-19T03:23:25;10.83;;;7.60;;
68089;SDS011;54880;50.986;6.990;2023-06-19T03:25:50;11.30;;;7.87;;
68089;SDS011;54880;50.986;6.990;2023-06-19T03:28:15;13.47;;;7.83;;
68089;SDS011;54880;50.986;6.990;2023-06-19T03:30:41;11.63;;;8.10;;
68089;SDS011;54880;50.986;6.990;2023-06-19T03:33:07;11.77;;;7.50;;
68089;SDS011;54880;50.986;6.990;2023-06-19T03:35:39;15.18;;;7.90;;
68089;SDS011;54880;50.986;6.990;2023-06-19T03:38:06;10.68;;;7.70;;
68089;SDS011;54880;50.986;6.990;2023-06-19T03:40:31;9.97;;;7.37;;
68089;SDS011;54880;50.986;6.990;2023-06-19T03:42:57;12.03;;;8.13;;
68089;SDS011;54880;50.986;6.990;2023-06-19T03:45:23;13.15;;;7.95;;
68089;SDS011;54880;50.986;6.990;2023-06-19T03:47:48;11.80;;;7.77;;
68089;SDS011;54880;50.986;6.990;2023-06-19T03:50:14;12.60;;;8.13;;
68089;SDS011;54880;50.986;6.990;2023-06-19T03:52:39;13.67;;;8.03;;
68089;SDS011;54880;50.986;6.990;2023-06-19T03:55:05;12.50;;;8.40;;
68089;SDS011;54880;50.986;6.990;2023-06-19T03:57:30;10.57;;;7.77;;
68089;SDS011;54880;50.986;6.990;2023-06-19T03:59:56;11.43;;;7.50;;
68089;SDS011;54880;50.986;6.990;2023-06-19T04:02:21;12.52;;;6.88;;
68089;SDS011;54880;50.986;6.990;2023-06-19T04:04:47;11.87;;;6.73;;
68089;SDS011;54880;50.986;6.990;2023-06-19T04:07:13;9.50;;;5.72;;
68089;SDS011;54880;50.986;6.990;2023-06-19T04:09:40;10.43;;;5.80;;
68089;SDS011;54880;50.986;6.990;2023-06-19T04:12:05;9.20;;;4.88;;
68089;SDS011;54880;50.986;6.990;2023-06-19T04:14:31;7.82;;;4.75;;
68089;SDS011;54880;50.986;6.990;2023-06-19T04:16:57;8.57;;;4.97;;
68089;SDS011;54880;50.986;6.990;2023-06-19T04:19:22;9.10;;;4.97;;
68089;SDS011;54880;50.986;6.990;2023-06-19T04:21:48;9.07;;;4.33;;
68089;SDS011;54880;50.986;6.990;2023-06-19T04:24:13;9.73;;;5.03;;
68089;SDS011;54880;50.986;6.990;2023-06-19T04:26:39;8.38;;;4.20;;
68089;SDS011;54880;50.986;6.990;2023-06-19T04:29:04;7.37;;;4.07;;
68089;SDS011;54880;50.986;6.990;2023-06-19T04:31:31;8.93;;;4.10;;
68089;SDS011;54880;50.986;6.990;2023-06-19T04:33:56;7.22;;;4.35;;
68089;SDS011;54880;50.986;6.990;2023-06-19T04:36:22;7.30;;;3.77;;
68089;SDS011;54880;50.986;6.990;2023-06-19T04:38:48;8.63;;;4.13;;
68089;SDS011;54880;50.986;6.990;2023-06-19T04:41:14;9.02;;;3.72;;
68089;SDS011;54880;50.986;6.990;2023-06-19T04:43:40;8.43;;;3.80;;
68089;SDS011;54880;50.986;6.990;2023-06-19T04:46:06;9.00;;;3.53;;
68089;SDS011;54880;50.986;6.990;2023-06-19T04:48:32;7.33;;;3.40;;
68089;SDS011;54880;50.986;6.990;2023-06-19T04:50:57;8.10;;;3.37;;
68089;SDS011;54880;50.986;6.990;2023-06-19T04:53:22;9.60;;;3.73;;
68089;SDS011;54880;50.986;6.990;2023-06-19T04:55:47;8.93;;;3.53;;
68089;SDS011;54880;50.986;6.990;2023-06-19T04:58:14;6.45;;;3.08;;
68089;SDS011;54880;50.986;6.990;2023-06-19T05:00:39;8.50;;;3.23;;
68089;SDS011;54880;50.986;6.990;2023-06-19T05:03:05;7.43;;;3.00;;
68089;SDS011;54880;50.986;6.990;2023-06-19T05:05:30;7.80;;;3.50;;
68089;SDS011;54880;50.986;6.990;2023-06-19T05:07:55;8.40;;;3.30;;
68089;SDS011;54880;50.986;6.990;2023-06-19T05:10:21;8.52;;;3.50;;
68089;SDS011;54880;50.986;6.990;2023-06-19T05:12:46;6.53;;;3.15;;
68089;SDS011;54880;50.986;6.990;2023-06-19T05:15:11;8.03;;;3.33;;
68089;SDS011;54880;50.986;6.990;2023-06-19T05:17:37;6.50;;;3.23;;
68089;SDS011;54880;50.986;6.990;2023-06-19T05:20:04;8.80;;;3.45;;
68089;SDS011;54880;50.986;6.990;2023-06-19T05:22:30;10.23;;;2.90;;
68089;SDS011;54880;50.986;6.990;2023-06-19T05:24:56;7.82;;;3.25;;
68089;SDS011;54880;50.986;6.990;2023-06-19T05:27:21;6.40;;;2.90;;
68089;SDS011;54880;50.986;6.990;2023-06-19T05:29:47;7.50;;;3.50;;
68089;SDS011;54880;50.986;6.990;2023-06-19T05:32:12;6.77;;;3.30;;
68089;SDS011;54880;50.986;6.990;2023-06-19T05:34:37;7.00;;;3.30;;
68089;SDS011;54880;50.986;6.990;2023-06-19T05:37:03;7.70;;;3.30;;
68089;SDS011;54880;50.986;6.990;2023-06-19T05:39:28;7.03;;;3.67;;
68089;SDS011;54880;50.986;6.990;2023-06-19T05:41:54;8.88;;;3.80;;
68089;SDS011;54880;50.986;6.990;2023-06-19T05:44:19;8.83;;;3.13;;
68089;SDS011;54880;50.986;6.990;2023-06-19T05:46:45;6.70;;;3.40;;
68089;SDS011;54880;50.986;6.990;2023-06-19T05:49:10;6.33;;;2.90;;
68089;SDS011;54880;50.986;6.990;2023-06-19T05:51:35;8.27;;;3.20;;
68089;SDS011;54880;50.986;6.990;2023-06-19T05:54:00;7.97;;;3.30;;
68089;SDS011;54880;50.986;6.990;2023-06-19T05:56:29;8.43;;;3.35;;
68089;SDS011;54880;50.986;6.990;2023-06-19T05:58:54;7.60;;;3.20;;
68089;SDS011;54880;50.986;6.990;2023-06-19T06:01:19;7.37;;;3.03;;
68089;SDS011;54880;50.986;6.990;2023-06-19T06:03:44;7.00;;;2.80;;
68089;SDS011;54880;50.986;6.990;2023-06-19T06:06:10;6.10;;;2.53;;
68089;SDS011;54880;50.986;6.990;2023-06-19T06:08:35;6.47;;;2.60;;
68089;SDS011;54880;50.986;6.990;2023-06-19T06:11:01;5.83;;;2.50;;
68089;SDS011;54880;50.986;6.990;2023-06-19T06:13:26;7.17;;;2.40;;
68089;SDS011;54880;50.986;6.990;2023-06-19T06:15:51;6.23;;;2.10;;
68089;SDS011;54880;50.986;6.990;2023-06-19T06:18:16;5.70;;;2.13;;
68089;SDS011;54880;50.986;6.990;2023-06-19T06:20:42;6.63;;;2.20;;
68089;SDS011;54880;50.986;6.990;2023-06-19T06:23:07;5.63;;;2.20;;
68089;SDS011;54880;50.986;6.990;2023-06-19T06:25:33;5.63;;;2.20;;
68089;SDS011;54880;50.986;6.990;2023-06-19T06:27:58;6.50;;;1.80;;
68089;SDS011;54880;50.986;6.990;2023-06-19T06:30:23;6.30;;;2.13;;
68089;SDS011;54880;50.986;6.990;2023-06-19T06:32:49;5.55;;;1.73;;
68089;SDS011;54880;50.986;6.990;2023-06-19T06:35:15;5.90;;;2.00;;
68089;SDS011;54880;50.986;6.990;2023-06-19T06:37:40;10.20;;;2.10;;
68089;SDS011;54880;50.986;6.990;2023-06-19T06:40:06;5.13;;;1.80;;
68089;SDS011;54880;50.986;6.990;2023-06-19T06:42:34;5.80;;;2.08;;
68089;SDS011;54880;50.986;6.990;2023-06-19T06:44:59;5.43;;;2.20;;
68089;SDS011;54880;50.986;6.990;2023-06-19T06:47:24;5.57;;;1.90;;
68089;SDS011;54880;50.986;6.990;2023-06-19T06:49:50;6.37;;;2.00;;
68089;SDS011;54880;50.986;6.990;2023-06-19T06:52:15;5.93;;;2.07;;
68089;SDS011;54880;50.986;6.990;2023-06-19T06:54:40;7.00;;;2.23;;
68089;SDS011;54880;50.986;6.990;2023-06-19T06:57:06;5.97;;;1.80;;
68089;SDS011;54880;50.986;6.990;2023-06-19T06:59:31;6.00;;;2.47;;
68089;SDS011;54880;50.986;6.990;2023-06-19T07:01:56;7.50;;;2.80;;
68089;SDS011;54880;50.986;6.990;2023-06-19T07:04:22;5.77;;;2.37;;
68089;SDS011;54880;50.986;6.990;2023-06-19T07:06:47;7.67;;;2.60;;
68089;SDS011;54880;50.986;6.990;2023-06-19T07:09:14;6.43;;;2.10;;
68089;SDS011;54880;50.986;6.990;2023-06-19T07:11:40;6.55;;;1.70;;
68089;SDS011;54880;50.986;6.990;2023-06-19T07:14:05;5.23;;;1.93;;
68089;SDS011;54880;50.986;6.990;2023-06-19T07:16:30;5.82;;;1.80;;
68089;SDS011;54880;50.986;6.990;2023-06-19T07:18:56;6.10;;;1.93;;
68089;SDS011;54880;50.986;6.990;2023-06-19T07:21:21;6.23;;;1.90;;
68089;SDS011;54880;50.986;6.990;2023-06-19T07:23:47;5.83;;;2.00;;
68089;SDS011;54880;50.986;6.990;2023-06-19T07:26:15;5.35;;;1.80;;
68089;SDS011;54880;50.986;6.990;2023-06-19T07:28:41;6.83;;;2.00;;
68089;SDS011;54880;50.986;6.990;2023-06-19T07:31:06;5.32;;;1.90;;
68089;SDS011;54880;50.986;6.990;2023-06-19T07:33:31;5.07;;;1.93;;
68089;SDS011;54880;50.986;6.990;2023-06-19T07:35:57;7.67;;;2.00;;
68089;SDS011;54880;50.986;6.990;2023-06-19T07:38:22;4.83;;;1.60;;
68089;SDS011;54880;50.986;6.990;2023-06-19T07:40:48;5.70;;;1.60;;
68089;SDS011;54880;50.986;6.990;2023-06-19T07:43:13;7.23;;;2.00;;
68089;SDS011;54880;50.986;6.990;2023-06-19T07:45:38;5.03;;;1.80;;
68089;SDS011;54880;50.986;6.990;2023-06-19T07:48:04;5.17;;;1.87;;
68089;SDS011;54880;50.986;6.990;2023-06-19T07:50:29;5.67;;;1.70;;
68089;SDS011;54880;50.986;6.990;2023-06-19T07:52:54;6.93;;;1.70;;
68089;SDS011;54880;50.986;6.990;2023-06-19T07:55:19;5.53;;;1.73;;
68089;SDS011;54880;50.986;6.990;2023-06-19T07:57:45;5.60;;;1.98;;
68089;SDS011;54880;50.986;6.990;2023-06-19T08:00:10;4.80;;;1.73;;
68089;SDS011;54880;50.986;6.990;2023-06-19T08:02:38;5.80;;;1.70;;
68089;SDS011;54880;50.986;6.990;2023-06-19T08:05:03;6.05;;;2.00;;
68089;SDS011;54880;50.986;6.990;2023-06-19T08:07:28;6.53;;;2.17;;
68089;SDS011;54880;50.986;6.990;2023-06-19T08:09:53;6.17;;;1.90;;
68089;SDS011;54880;50.986;6.990;2023-06-19T08:12:19;4.30;;;1.60;;
68089;SDS011;54880;50.986;6.990;2023-06-19T08:14:44;5.30;;;1.90;;
68089;SDS011;54880;50.986;6.990;2023-06-19T08:17:09;6.07;;;2.00;;
68089;SDS011;54880;50.986;6.990;2023-06-19T08:19:34;5.53;;;1.80;;
68089;SDS011;54880;50.986;6.990;2023-06-19T08:22:00;5.63;;;2.00;;
68089;SDS011;54880;50.986;6.990;2023-06-19T08:24:25;6.63;;;2.20;;
68089;SDS011;54880;50.986;6.990;2023-06-19T08:26:50;6.07;;;2.23;;
68089;SDS011;54880;50.986;6.990;2023-06-19T08:29:17;6.68;;;2.08;;
68089;SDS011;54880;50.986;6.990;2023-06-19T08:31:43;9.30;;;2.50;;
68089;SDS011;54880;50.986;6.990;2023-06-19T08:34:08;7.90;;;2.50;;
68089;SDS011;54880;50.986;6.990;2023-06-19T08:36:34;6.47;;;2.10;;
68089;SDS011;54880;50.986;6.990;2023-06-19T08:39:00;5.17;;;1.93;;
68089;SDS011;54880;50.986;6.990;2023-06-19T08:41:25;5.87;;;2.07;;
68089;SDS011;54880;50.986;6.990;2023-06-19T08:43:50;6.70;;;2.10;;
68089;SDS011;54880;50.986;6.990;2023-06-19T08:46:16;5.80;;;2.00;;
68089;SDS011;54880;50.986;6.990;2023-06-19T08:48:48;6.70;;;1.88;;
68089;SDS011;54880;50.986;6.990;2023-06-19T08:51:13;9.70;;;2.30;;
68089;SDS011;54880;50.986;6.990;2023-06-19T08:53:46;8.30;;;2.30;;
68089;SDS011;54880;50.986;6.990;2023-06-19T08:56:11;6.85;;;2.30;;
68089;SDS011;54880;50.986;6.990;2023-06-19T08:58:37;5.20;;;1.90;;
68089;SDS011;54880;50.986;6.990;2023-06-19T09:01:02;6.90;;;2.10;;
68089;SDS011;54880;50.986;6.990;2023-06-19T09:03:28;10.82;;;2.17;;
68089;SDS011;54880;50.986;6.990;2023-06-19T09:05:53;6.83;;;2.20;;
68089;SDS011;54880;50.986;6.990;2023-06-19T09:08:20;7.18;;;2.30;;
68089;SDS011;54880;50.986;6.990;2023-06-19T09:13:21;7.45;;;2.38;;
68089;SDS011;54880;50.986;6.990;2023-06-19T09:15:46;6.03;;;2.23;;
68089;SDS011;54880;50.986;6.990;2023-06-19T09:18:11;7.40;;;2.57;;
68089;SDS011;54880;50.986;6.990;2023-06-19T09:20:38;8.20;;;2.55;;
68089;SDS011;54880;50.986;6.990;2023-06-19T09:23:05;7.70;;;2.30;;
68089;SDS011;54880;50.986;6.990;2023-06-19T09:25:30;6.50;;;3.10;;
68089;SDS011;54880;50.986;6.990;2023-06-19T09:27:56;9.43;;;3.20;;
68089;SDS011;54880;50.986;6.990;2023-06-19T09:30:22;8.18;;;2.88;;
68089;SDS011;54880;50.986;6.990;2023-06-19T09:32:47;7.73;;;2.97;;
68089;SDS011;54880;50.986;6.990;2023-06-19T09:35:13;6.80;;;3.30;;
68089;SDS011;54880;50.986;6.990;2023-06-19T09:37:38;9.00;;;3.30;;
68089;SDS011;54880;50.986;6.990;2023-06-19T09:40:04;8.77;;;3.00;;
68089;SDS011;54880;50.986;6.990;2023-06-19T09:42:40;8.52;;;3.67;;
68089;SDS011;54880;50.986;6.990;2023-06-19T09:45:12;7.47;;;3.20;;
68089;SDS011;54880;50.986;6.990;2023-06-19T09:47:44;7.05;;;3.80;;
68089;SDS011;54880;50.986;6.990;2023-06-19T09:50:11;8.10;;;4.53;;
68089;SDS011;54880;50.986;6.990;2023-06-19T09:52:37;11.02;;;3.92;;
68089;SDS011;54880;50.986;6.990;2023-06-19T09:55:04;10.02;;;4.22;;
68089;SDS011;54880;50.986;6.990;2023-06-19T09:57:31;8.10;;;4.35;;
68089;SDS011;54880;50.986;6.990;2023-06-19T09:59:57;6.97;;;3.70;;
68089;SDS011;54880;50.986;6.990;2023-06-19T10:02:24;9.50;;;3.90;;
68089;SDS011;54880;50.986;6.990;2023-06-19T10:04:51;9.13;;;3.95;;
68089;SDS011;54880;50.986;6.990;2023-06-19T10:07:24;8.00;;;3.97;;
68089;SDS011;54880;50.986;6.990;2023-06-19T10:10:03;10.30;;;4.03;;
68089;SDS011;54880;50.986;6.990;2023-06-19T10:12:37;7.10;;;3.17;;
68089;SDS011;54880;50.986;6.990;2023-06-19T10:15:10;8.32;;;3.35;;
68089;SDS011;54880;50.986;6.990;2023-06-19T10:17:36;10.85;;;4.13;;
68089;SDS011;54880;50.986;6.990;2023-06-19T10:20:01;8.57;;;4.20;;
68089;SDS011;54880;50.986;6.990;2023-06-19T10:22:32;10.50;;;3.80;;
68089;SDS011;54880;50.986;6.990;2023-06-19T10:24:57;7.57;;;3.92;;
68089;SDS011;54880;50.986;6.990;2023-06-19T10:27:24;9.70;;;3.77;;
68089;SDS011;54880;50.986;6.990;2023-06-19T10:29:53;7.90;;;3.90;;
68089;SDS011;54880;50.986;6.990;2023-06-19T10:32:18;7.82;;;4.15;;
68089;SDS011;54880;50.986;6.990;2023-06-19T10:34:47;8.77;;;4.10;;
68089;SDS011;54880;50.986;6.990;2023-06-19T10:37:14;10.60;;;4.03;;
68089;SDS011;54880;50.986;6.990;2023-06-19T10:39:39;10.00;;;4.13;;
68089;SDS011;54880;50.986;6.990;2023-06-19T10:42:06;10.53;;;4.00;;
68089;SDS011;54880;50.986;6.990;2023-06-19T10:44:32;11.20;;;4.00;;
68089;SDS011;54880;50.986;6.990;2023-06-19T10:46:57;8.77;;;3.57;;
68089;SDS011;54880;50.986;6.990;2023-06-19T10:49:22;8.50;;;4.00;;
68089;SDS011;54880;50.986;6.990;2023-06-19T10:51:48;10.63;;;3.67;;
68089;SDS011;54880;50.986;6.990;2023-06-19T10:54:13;8.40;;;3.80;;
68089;SDS011;54880;50.986;6.990;2023-06-19T10:56:38;8.43;;;3.47;;
68089;SDS011;54880;50.986;6.990;2023-06-19T10:59:05;9.63;;;3.53;;
68089;SDS011;54880;50.986;6.990;2023-06-19T11:01:34;8.40;;;3.58;;
68089;SDS011;54880;50.986;6.990;2023-06-19T11:04:01;9.95;;;4.05;;
68089;SDS011;54880;50.986;6.990;2023-06-19T11:06:28;10.90;;;3.60;;
68089;SDS011;54880;50.986;6.990;2023-06-19T11:08:54;8.83;;;4.00;;
68089;SDS011;54880;50.986;6.990;2023-06-19T11:11:19;9.63;;;3.95;;
68089;SDS011;54880;50.986;6.990;2023-06-19T11:13:45;7.63;;;3.42;;
68089;SDS011;54880;50.986;6.990;2023-06-19T11:16:10;11.80;;;3.57;;
68089;SDS011;54880;50.986;6.990;2023-06-19T11:18:36;8.17;;;3.90;;
68089;SDS011;54880;50.986;6.990;2023-06-19T11:21:01;10.30;;;3.70;;
68089;SDS011;54880;50.986;6.990;2023-06-19T11:23:28;9.10;;;3.50;;
68089;SDS011;54880;50.986;6.990;2023-06-19T11:25:54;8.70;;;4.03;;
68089;SDS011;54880;50.986;6.990;2023-06-19T11:28:21;10.13;;;4.13;;
68089;SDS011;54880;50.986;6.990;2023-06-19T11:30:47;8.20;;;4.03;;
68089;SDS011;54880;50.986;6.990;2023-06-19T11:33:17;8.73;;;3.90;;
68089;SDS011;54880;50.986;6.990;2023-06-19T11:35:51;10.98;;;3.90;;
68089;SDS011;54880;50.986;6.990;2023-06-19T11:38:18;8.35;;;3.65;;
68089;SDS011;54880;50.986;6.990;2023-06-19T11:40:43;9.18;;;3.95;;
68089;SDS011;54880;50.986;6.990;2023-06-19T11:43:10;8.40;;;3.80;;
68089;SDS011;54880;50.986;6.990;2023-06-19T11:45:49;7.22;;;3.70;;
68089;SDS011;54880;50.986;6.990;2023-06-19T11:48:21;8.77;;;4.05;;
68089;SDS011;54880;50.986;6.990;2023-06-19T11:50:46;8.50;;;3.75;;
68089;SDS011;54880;50.986;6.990;2023-06-19T11:53:11;12.07;;;4.17;;
68089;SDS011;54880;50.986;6.990;2023-06-19T11:55:38;10.73;;;3.92;;
68089;SDS011;54880;50.986;6.990;2023-06-19T11:58:03;9.37;;;3.53;;
68089;SDS011;54880;50.986;6.990;2023-06-19T12:00:29;9.13;;;3.67;;
68089;SDS011;54880;50.986;6.990;2023-06-19T12:02:54;10.83;;;4.27;;
68089;SDS011;54880;50.986;6.990;2023-06-19T12:05:22;8.13;;;3.92;;
68089;SDS011;54880;50.986;6.990;2023-06-19T12:07:47;10.10;;;3.97;;
68089;SDS011;54880;50.986;6.990;2023-06-19T12:10:12;7.90;;;3.90;;
68089;SDS011;54880;50.986;6.990;2023-06-19T12:12:38;8.87;;;3.50;;
68089;SDS011;54880;50.986;6.990;2023-06-19T12:15:04;9.02;;;3.95;;
68089;SDS011;54880;50.986;6.990;2023-06-19T12:17:29;11.70;;;4.37;;
68089;SDS011;54880;50.986;6.990;2023-06-19T12:19:55;10.90;;;4.43;;
68089;SDS011;54880;50.986;6.990;2023-06-19T12:22:20;8.47;;;3.37;;
68089;SDS011;54880;50.986;6.990;2023-06-19T12:24:45;14.63;;;3.27;;
68089;SDS011;54880;50.986;6.990;2023-06-19T12:27:11;11.30;;;3.37;;
68089;SDS011;54880;50.986;6.990;2023-06-19T12:29:36;9.13;;;3.50;;
68089;SDS011;54880;50.986;6.990;2023-06-19T12:32:01;8.90;;;3.40;;
68089;SDS011;54880;50.986;6.990;2023-06-19T12:34:30;9.25;;;3.40;;
68089;SDS011;54880;50.986;6.990;2023-06-19T12:36:55;8.60;;;3.60;;
68089;SDS011;54880;50.986;6.990;2023-06-19T12:39:22;7.87;;;3.50;;
68089;SDS011;54880;50.986;6.990;2023-06-19T12:41:47;7.32;;;3.55;;
68089;SDS011;54880;50.986;6.990;2023-06-19T12:44:12;10.83;;;3.93;;
68089;SDS011;54880;50.986;6.990;2023-06-19T12:46:38;9.77;;;2.90;;
68089;SDS011;54880;50.986;6.990;2023-06-19T12:49:03;9.03;;;3.57;;
68089;SDS011;54880;50.986;6.990;2023-06-19T12:51:28;8.87;;;3.90;;
68089;SDS011;54880;50.986;6.990;2023-06-19T12:53:54;8.03;;;3.50;;
68089;SDS011;54880;50.986;6.990;2023-06-19T12:56:19;7.70;;;3.83;;
68089;SDS011;54880;50.986;6.990;2023-06-19T12:58:44;7.63;;;3.27;;
68089;SDS011;54880;50.986;6.990;2023-06-19T13:01:09;12.17;;;3.37;;
68089;SDS011;54880;50.986;6.990;2023-06-19T13:03:34;8.83;;;3.63;;
68089;SDS011;54880;50.986;6.990;2023-06-19T13:06:00;8.87;;;4.00;;
68089;SDS011;54880;50.986;6.990;2023-06-19T13:08:25;11.00;;;4.03;;
68089;SDS011;54880;50.986;6.990;2023-06-19T13:10:50;9.53;;;3.73;;
68089;SDS011;54880;50.986;6.990;2023-06-19T13:13:15;7.40;;;3.53;;
68089;SDS011;54880;50.986;6.990;2023-06-19T13:15:41;8.13;;;3.43;;
68089;SDS011;54880;50.986;6.990;2023-06-19T13:18:06;11.70;;;3.60;;
68089;SDS011;54880;50.986;6.990;2023-06-19T13:20:31;8.30;;;3.50;;
68089;SDS011;54880;50.986;6.990;2023-06-19T13:22:57;9.30;;;3.93;;
68089;SDS011;54880;50.986;6.990;2023-06-19T13:25:25;8.37;;;3.40;;
68089;SDS011;54880;50.986;6.990;2023-06-19T13:27:50;8.13;;;3.60;;
68089;SDS011;54880;50.986;6.990;2023-06-19T13:30:15;9.70;;;3.43;;
68089;SDS011;54880;50.986;6.990;2023-06-19T13:32:41;6.50;;;3.43;;
68089;SDS011;54880;50.986;6.990;2023-06-19T13:35:07;8.70;;;3.90;;
68089;SDS011;54880;50.986;6.990;2023-06-19T13:37:36;8.00;;;3.75;;
68089;SDS011;54880;50.986;6.990;2023-06-19T13:40:04;7.50;;;3.50;;
68089;SDS011;54880;50.986;6.990;2023-06-19T13:42:29;8.45;;;3.85;;
68089;SDS011;54880;50.986;6.990;2023-06-19T13:44:54;8.00;;;3.13;;
68089;SDS011;54880;50.986;6.990;2023-06-19T13:47:20;7.57;;;3.73;;
68089;SDS011;54880;50.986;6.990;2023-06-19T13:49:45;10.23;;;3.50;;
68089;SDS011;54880;50.986;6.990;2023-06-19T13:52:11;10.13;;;3.83;;
68089;SDS011;54880;50.986;6.990;2023-06-19T13:54:36;10.30;;;3.37;;
68089;SDS011;54880;50.986;6.990;2023-06-19T13:57:01;9.30;;;3.67;;
68089;SDS011;54880;50.986;6.990;2023-06-19T13:59:26;9.43;;;3.85;;
68089;SDS011;54880;50.986;6.990;2023-06-19T14:01:52;10.83;;;3.90;;
68089;SDS011;54880;50.986;6.990;2023-06-19T14:04:17;8.13;;;3.53;;
68089;SDS011;54880;50.986;6.990;2023-06-19T14:06:42;8.27;;;3.80;;
68089;SDS011;54880;50.986;6.990;2023-06-19T14:09:08;10.15;;;3.97;;
68089;SDS011;54880;50.986;6.990;2023-06-19T14:11:34;8.83;;;3.77;;
68089;SDS011;54880;50.986;6.990;2023-06-19T14:13:59;8.90;;;3.90;;
68089;SDS011;54880;50.986;6.990;2023-06-19T14:16:24;10.23;;;4.07;;
68089;SDS011;54880;50.986;6.990;2023-06-19T14:18:50;9.00;;;3.53;;
68089;SDS011;54880;50.986;6.990;2023-06-19T14:21:15;9.73;;;3.67;;
68089;SDS011;54880;50.986;6.990;2023-06-19T14:23:40;10.37;;;3.80;;
68089;SDS011;54880;50.986;6.990;2023-06-19T14:26:09;8.73;;;3.88;;
68089;SDS011;54880;50.986;6.990;2023-06-19T14:28:34;7.10;;;3.70;;
68089;SDS011;54880;50.986;6.990;2023-06-19T14:30:59;9.43;;;3.50;;
68089;SDS011;54880;50.986;6.990;2023-06-19T14:33:24;8.20;;;4.00;;
68089;SDS011;54880;50.986;6.990;2023-06-19T14:35:49;8.40;;;4.00;;
68089;SDS011;54880;50.986;6.990;2023-06-19T14:38:15;8.50;;;3.80;;